sensor_id;sensor_type;location;lat;lon;timestamp;temperature;humidity
6536;DHT22;34330;52.08032700;5.40923460;2023-07-29T00:00:57;22.70;83.90
6536;DHT22;34330;52.08032700;5.40923460;2023-07-29T00:03:27;22.70;83.80
6536;DHT22;34330;52.08032700;5.40923460;2023-07-29T00:05:56;25.10;86.10
6536;DHT22;34330;52.08032700;5.40923460;2023-07-29T00:08:26;22.70;83.90
6536;DHT22;34330;52.08032700;5.40923460;2023-07-29T00:10:54;22.70;84.70
6536;DHT22;34330;52.08032700;5.40923460;2023-07-29T00:13:23;22.60;84.00
6536;DHT22;34330;52.08032700;5.40923460;2023-07-29T00:15:54;22.60;83.90
6536;DHT22;34330;52.08032700;5.40923460;2023-07-29T00:18:22;22.60;84.00
6536;DHT22;34330;52.08032700;5.40923460;2023-07-29T00:20:50;22.50;84.00
6536;DHT22;34330;52.08032700;5.40923460;2023-07-29T00:23:18;22.50;83.90
6536;DHT22;34330;52.08032700;5.40923460;2023-07-29T00:25:48;22.50;84.00
6536;DHT22;34330;52.08032700;5.40923460;2023-07-29T00:28:16;22.50;84.30
6536;DHT22;34330;52.08032700;5.40923460;2023-07-29T00:30:48;22.40;85.40
6536;DHT22;34330;52.08032700;5.40923460;2023-07-29T00:33:16;22.30;85.50
6536;DHT22;34330;52.08032700;5.40923460;2023-07-29T00:35:44;22.40;85.50
6536;DHT22;34330;52.08032700;5.40923460;2023-07-29T00:38:12;22.30;85.30
6536;DHT22;34330;52.08032700;5.40923460;2023-07-29T00:40:40;22.40;85.20
6536;DHT22;34330;52.08032700;5.40923460;2023-07-29T00:43:10;22.40;85.30
6536;DHT22;34330;52.08032700;5.40923460;2023-07-29T00:45:43;22.40;85.40
6536;DHT22;34330;52.08032700;5.40923460;2023-07-29T00:48:12;22.50;85.80
6536;DHT22;34330;52.08032700;5.40923460;2023-07-29T00:50:40;22.30;85.50
6536;DHT22;34330;52.08032700;5.40923460;2023-07-29T00:53:08;22.30;85.60
6536;DHT22;34330;52.08032700;5.40923460;2023-07-29T00:55:35;22.40;85.70
6536;DHT22;34330;52.08032700;5.40923460;2023-07-29T00:58:03;22.30;85.70
6536;DHT22;34330;52.08032700;5.40923460;2023-07-29T01:00:33;22.30;85.80
6536;DHT22;34330;52.08032700;5.40923460;2023-07-29T01:03:01;22.30;85.80
6536;DHT22;34330;52.08032700;5.40923460;2023-07-29T01:05:35;22.20;85.80
6536;DHT22;34330;52.08032700;5.40923460;2023-07-29T01:08:09;22.30;86.00
6536;DHT22;34330;52.08032700;5.40923460;2023-07-29T01:10:49;22.20;85.90
6536;DHT22;34330;52.08032700;5.40923460;2023-07-29T01:13:22;22.20;86.00
6536;DHT22;34330;52.08032700;5.40923460;2023-07-29T01:15:55;22.20;85.80
6536;DHT22;34330;52.08032700;5.40923460;2023-07-29T01:18:28;22.20;86.00
6536;DHT22;34330;52.08032700;5.40923460;2023-07-29T01:20:59;22.10;85.90
6536;DHT22;34330;52.08032700;5.40923460;2023-07-29T01:23:30;22.10;86.20
6536;DHT22;34330;52.08032700;5.40923460;2023-07-29T01:25:58;22.10;86.00
6536;DHT22;34330;52.08032700;5.40923460;2023-07-29T01:28:30;22.10;86.40
6536;DHT22;34330;52.08032700;5.40923460;2023-07-29T01:31:03;22.10;86.20
6536;DHT22;34330;52.08032700;5.40923460;2023-07-29T01:33:39;22.00;86.70
6536;DHT22;34330;52.08032700;5.40923460;2023-07-29T01:36:13;22.00;86.80
6536;DHT22;34330;52.08032700;5.40923460;2023-07-29T01:38:43;22.00;86.90
6536;DHT22;34330;52.08032700;5.40923460;2023-07-29T01:41:12;22.20;87.20
6536;DHT22;34330;52.08032700;5.40923460;2023-07-29T01:43:42;22.00;87.10
6536;DHT22;34330;52.08032700;5.40923460;2023-07-29T01:46:10;22.00;87.20
6536;DHT22;34330;52.08032700;5.40923460;2023-07-29T01:48:39;21.90;87.20
6536;DHT22;34330;52.08032700;5.40923460;2023-07-29T01:51:09;21.90;87.20
6536;DHT22;34330;52.08032700;5.40923460;2023-07-29T01:53:37;21.90;87.50
6536;DHT22;34330;52.08032700;5.40923460;2023-07-29T01:56:06;21.90;87.50
6536;DHT22;34330;52.08032700;5.40923460;2023-07-29T01:58:37;21.90;87.70
6536;DHT22;34330;52.08032700;5.40923460;2023-07-29T02:01:05;21.90;87.70
6536;DHT22;34330;52.08032700;5.40923460;2023-07-29T02:03:33;21.90;87.90
6536;DHT22;34330;52.08032700;5.40923460;2023-07-29T02:06:01;21.90;88.00
6536;DHT22;34330;52.08032700;5.40923460;2023-07-29T02:08:30;21.90;88.10
6536;DHT22;34330;52.08032700;5.40923460;2023-07-29T02:10:58;21.90;88.40
6536;DHT22;34330;52.08032700;5.40923460;2023-07-29T02:13:29;21.80;87.80
6536;DHT22;34330;52.08032700;5.40923460;2023-07-29T02:15:59;21.90;88.60
6536;DHT22;34330;52.08032700;5.40923460;2023-07-29T02:18:30;22.50;89.20
6536;DHT22;34330;52.08032700;5.40923460;2023-07-29T02:20:58;21.80;89.40
6536;DHT22;34330;52.08032700;5.40923460;2023-07-29T02:23:26;21.80;88.70
6536;DHT22;34330;52.08032700;5.40923460;2023-07-29T02:25:54;21.80;88.50
6536;DHT22;34330;52.08032700;5.40923460;2023-07-29T02:28:23;21.80;88.90
6536;DHT22;34330;52.08032700;5.40923460;2023-07-29T02:31:09;21.80;89.00
6536;DHT22;34330;52.08032700;5.40923460;2023-07-29T02:33:38;21.80;89.60
6536;DHT22;34330;52.08032700;5.40923460;2023-07-29T02:36:06;21.80;89.90
6536;DHT22;34330;52.08032700;5.40923460;2023-07-29T02:38:34;21.80;89.00
6536;DHT22;34330;52.08032700;5.40923460;2023-07-29T02:41:02;21.80;89.40
6536;DHT22;34330;52.08032700;5.40923460;2023-07-29T02:43:30;21.70;89.40
6536;DHT22;34330;52.08032700;5.40923460;2023-07-29T02:46:00;21.70;89.50
6536;DHT22;34330;52.08032700;5.40923460;2023-07-29T02:48:28;21.70;89.60
6536;DHT22;34330;52.08032700;5.40923460;2023-07-29T02:50:56;21.90;89.70
6536;DHT22;34330;52.08032700;5.40923460;2023-07-29T02:53:24;21.70;89.80
6536;DHT22;34330;52.08032700;5.40923460;2023-07-29T02:55:54;21.60;89.90
6536;DHT22;34330;52.08032700;5.40923460;2023-07-29T02:58:22;21.60;89.80
6536;DHT22;34330;52.08032700;5.40923460;2023-07-29T03:00:50;21.60;90.00
6536;DHT22;34330;52.08032700;5.40923460;2023-07-29T03:03:20;21.60;89.90
6536;DHT22;34330;52.08032700;5.40923460;2023-07-29T03:05:48;21.60;90.00
6536;DHT22;34330;52.08032700;5.40923460;2023-07-29T03:08:16;21.50;89.90
6536;DHT22;34330;52.08032700;5.40923460;2023-07-29T03:10:44;21.50;90.00
6536;DHT22;34330;52.08032700;5.40923460;2023-07-29T03:13:12;21.50;90.00
6536;DHT22;34330;52.08032700;5.40923460;2023-07-29T03:15:40;21.70;90.20
6536;DHT22;34330;52.08032700;5.40923460;2023-07-29T03:18:08;21.50;90.10
6536;DHT22;34330;52.08032700;5.40923460;2023-07-29T03:20:38;21.50;90.10
6536;DHT22;34330;52.08032700;5.40923460;2023-07-29T03:23:06;21.50;90.20
6536;DHT22;34330;52.08032700;5.40923460;2023-07-29T03:25:34;21.50;90.20
6536;DHT22;34330;52.08032700;5.40923460;2023-07-29T03:28:02;21.40;90.10
6536;DHT22;34330;52.08032700;5.40923460;2023-07-29T03:30:31;21.40;90.20
6536;DHT22;34330;52.08032700;5.40923460;2023-07-29T03:32:59;21.40;90.20
6536;DHT22;34330;52.08032700;5.40923460;2023-07-29T03:35:27;21.40;90.20
6536;DHT22;34330;52.08032700;5.40923460;2023-07-29T03:37:56;21.40;90.10
6536;DHT22;34330;52.08032700;5.40923460;2023-07-29T03:40:24;21.40;90.50
6536;DHT22;34330;52.08032700;5.40923460;2023-07-29T03:42:53;21.40;90.20
6536;DHT22;34330;52.08032700;5.40923460;2023-07-29T03:45:21;21.40;90.20
6536;DHT22;34330;52.08032700;5.40923460;2023-07-29T03:47:49;21.30;90.20
6536;DHT22;34330;52.08032700;5.40923460;2023-07-29T03:50:17;21.30;90.20
6536;DHT22;34330;52.08032700;5.40923460;2023-07-29T03:52:45;21.30;90.60
6536;DHT22;34330;52.08032700;5.40923460;2023-07-29T03:55:14;21.30;90.30
6536;DHT22;34330;52.08032700;5.40923460;2023-07-29T03:57:42;21.30;90.60
6536;DHT22;34330;52.08032700;5.40923460;2023-07-29T04:00:11;21.30;90.30
6536;DHT22;34330;52.08032700;5.40923460;2023-07-29T04:02:39;21.30;90.20
6536;DHT22;34330;52.08032700;5.40923460;2023-07-29T04:05:08;23.60;91.30
6536;DHT22;34330;52.08032700;5.40923460;2023-07-29T04:07:36;19.50;88.90
6536;DHT22;34330;52.08032700;5.40923460;2023-07-29T04:10:05;21.30;90.30
6536;DHT22;34330;52.08032700;5.40923460;2023-07-29T04:12:35;21.20;90.20
6536;DHT22;34330;52.08032700;5.40923460;2023-07-29T04:15:04;21.20;90.60
6536;DHT22;34330;52.08032700;5.40923460;2023-07-29T04:17:32;21.20;90.20
6536;DHT22;34330;52.08032700;5.40923460;2023-07-29T04:20:01;21.20;90.10
6536;DHT22;34330;52.08032700;5.40923460;2023-07-29T04:22:29;21.10;90.10
6536;DHT22;34330;52.08032700;5.40923460;2023-07-29T04:24:57;21.10;90.10
6536;DHT22;34330;52.08032700;5.40923460;2023-07-29T04:27:25;21.10;90.10
6536;DHT22;34330;52.08032700;5.40923460;2023-07-29T04:29:55;21.10;90.10
6536;DHT22;34330;52.08032700;5.40923460;2023-07-29T04:32:23;21.10;90.10
6536;DHT22;34330;52.08032700;5.40923460;2023-07-29T04:34:52;21.10;90.20
6536;DHT22;34330;52.08032700;5.40923460;2023-07-29T04:37:20;21.00;90.10
6536;DHT22;34330;52.08032700;5.40923460;2023-07-29T04:39:48;21.00;90.20
6536;DHT22;34330;52.08032700;5.40923460;2023-07-29T04:42:16;21.00;90.20
6536;DHT22;34330;52.08032700;5.40923460;2023-07-29T04:44:44;21.00;90.10
6536;DHT22;34330;52.08032700;5.40923460;2023-07-29T04:47:14;21.00;90.20
6536;DHT22;34330;52.08032700;5.40923460;2023-07-29T04:49:42;21.00;90.20
6536;DHT22;34330;52.08032700;5.40923460;2023-07-29T04:52:10;21.00;90.20
6536;DHT22;34330;52.08032700;5.40923460;2023-07-29T04:54:38;21.00;90.20
6536;DHT22;34330;52.08032700;5.40923460;2023-07-29T04:57:06;21.00;90.20
6536;DHT22;34330;52.08032700;5.40923460;2023-07-29T04:59:34;20.90;90.10
6536;DHT22;34330;52.08032700;5.40923460;2023-07-29T05:02:02;21.00;90.20
6536;DHT22;34330;52.08032700;5.40923460;2023-07-29T05:04:32;20.90;90.20
6536;DHT22;34330;52.08032700;5.40923460;2023-07-29T05:07:00;21.00;90.20
6536;DHT22;34330;52.08032700;5.40923460;2023-07-29T05:09:28;21.00;90.60
6536;DHT22;34330;52.08032700;5.40923460;2023-07-29T05:11:56;20.90;90.30
6536;DHT22;34330;52.08032700;5.40923460;2023-07-29T05:14:24;20.90;90.20
6536;DHT22;34330;52.08032700;5.40923460;2023-07-29T05:16:53;20.90;90.30
6536;DHT22;34330;52.08032700;5.40923460;2023-07-29T05:19:21;20.90;90.30
6536;DHT22;34330;52.08032700;5.40923460;2023-07-29T05:21:50;20.90;90.40
6536;DHT22;34330;52.08032700;5.40923460;2023-07-29T05:24:18;20.90;90.60
6536;DHT22;34330;52.08032700;5.40923460;2023-07-29T05:26:46;20.80;90.40
6536;DHT22;34330;52.08032700;5.40923460;2023-07-29T05:29:14;20.90;90.40
6536;DHT22;34330;52.08032700;5.40923460;2023-07-29T05:31:42;20.90;90.40
6536;DHT22;34330;52.08032700;5.40923460;2023-07-29T05:34:10;21.20;90.40
6536;DHT22;34330;52.08032700;5.40923460;2023-07-29T05:36:38;20.90;90.30
6536;DHT22;34330;52.08032700;5.40923460;2023-07-29T05:39:09;21.00;90.50
6536;DHT22;34330;52.08032700;5.40923460;2023-07-29T05:41:38;21.00;90.40
6536;DHT22;34330;52.08032700;5.40923460;2023-07-29T05:44:06;21.00;90.50
6536;DHT22;34330;52.08032700;5.40923460;2023-07-29T05:46:36;21.00;90.50
6536;DHT22;34330;52.08032700;5.40923460;2023-07-29T05:49:05;21.10;90.60
6536;DHT22;34330;52.08032700;5.40923460;2023-07-29T05:51:33;21.10;90.50
6536;DHT22;34330;52.08032700;5.40923460;2023-07-29T05:54:01;21.10;90.50
6536;DHT22;34330;52.08032700;5.40923460;2023-07-29T05:56:30;21.10;90.50
6536;DHT22;34330;52.08032700;5.40923460;2023-07-29T05:58:59;21.60;90.80
6536;DHT22;34330;52.08032700;5.40923460;2023-07-29T06:01:27;21.10;90.50
6536;DHT22;34330;52.08032700;5.40923460;2023-07-29T06:03:55;21.20;90.50
6536;DHT22;34330;52.08032700;5.40923460;2023-07-29T06:06:23;21.20;90.90
6536;DHT22;34330;52.08032700;5.40923460;2023-07-29T06:08:51;21.20;90.90
6536;DHT22;34330;52.08032700;5.40923460;2023-07-29T06:11:19;21.20;91.00
6536;DHT22;34330;52.08032700;5.40923460;2023-07-29T06:13:48;21.20;91.00
6536;DHT22;34330;52.08032700;5.40923460;2023-07-29T06:16:16;21.20;91.00
6536;DHT22;34330;52.08032700;5.40923460;2023-07-29T06:18:45;21.60;91.10
6536;DHT22;34330;52.08032700;5.40923460;2023-07-29T06:21:13;21.40;91.00
6536;DHT22;34330;52.08032700;5.40923460;2023-07-29T06:23:43;21.60;91.00
6536;DHT22;34330;52.08032700;5.40923460;2023-07-29T06:26:12;21.50;91.00
6536;DHT22;34330;52.08032700;5.40923460;2023-07-29T06:28:40;21.60;91.00
6536;DHT22;34330;52.08032700;5.40923460;2023-07-29T06:31:09;21.70;90.90
6536;DHT22;34330;52.08032700;5.40923460;2023-07-29T06:33:37;21.80;91.10
6536;DHT22;34330;52.08032700;5.40923460;2023-07-29T06:36:05;21.80;90.70
6536;DHT22;34330;52.08032700;5.40923460;2023-07-29T06:38:34;21.90;90.70
6536;DHT22;34330;52.08032700;5.40923460;2023-07-29T06:41:02;21.90;90.70
6536;DHT22;34330;52.08032700;5.40923460;2023-07-29T06:43:30;22.00;90.70
6536;DHT22;34330;52.08032700;5.40923460;2023-07-29T06:45:58;22.00;90.60
6536;DHT22;34330;52.08032700;5.40923460;2023-07-29T06:48:28;22.10;90.60
6536;DHT22;34330;52.08032700;5.40923460;2023-07-29T06:50:56;22.10;90.40
6536;DHT22;34330;52.08032700;5.40923460;2023-07-29T06:53:30;22.10;90.50
6536;DHT22;34330;52.08032700;5.40923460;2023-07-29T06:56:00;22.20;90.50
6536;DHT22;34330;52.08032700;5.40923460;2023-07-29T06:58:28;22.20;90.60
6536;DHT22;34330;52.08032700;5.40923460;2023-07-29T07:00:56;22.30;90.60
6536;DHT22;34330;52.08032700;5.40923460;2023-07-29T07:03:24;22.30;90.50
6536;DHT22;34330;52.08032700;5.40923460;2023-07-29T07:05:54;22.40;90.50
6536;DHT22;34330;52.08032700;5.40923460;2023-07-29T07:08:22;22.40;90.50
6536;DHT22;34330;52.08032700;5.40923460;2023-07-29T07:10:50;22.50;90.30
6536;DHT22;34330;52.08032700;5.40923460;2023-07-29T07:13:18;22.50;90.20
6536;DHT22;34330;52.08032700;5.40923460;2023-07-29T07:15:46;22.50;90.20
6536;DHT22;34330;52.08032700;5.40923460;2023-07-29T07:18:14;22.60;90.20
6536;DHT22;34330;52.08032700;5.40923460;2023-07-29T07:20:42;22.60;90.20
6536;DHT22;34330;52.08032700;5.40923460;2023-07-29T07:23:12;22.60;90.20
6536;DHT22;34330;52.08032700;5.40923460;2023-07-29T07:25:40;22.60;90.20
6536;DHT22;34330;52.08032700;5.40923460;2023-07-29T07:28:08;22.70;90.20
6536;DHT22;34330;52.08032700;5.40923460;2023-07-29T07:30:39;22.70;90.10
6536;DHT22;34330;52.08032700;5.40923460;2023-07-29T07:33:08;22.70;90.30
6536;DHT22;34330;52.08032700;5.40923460;2023-07-29T07:35:36;22.70;90.20
6536;DHT22;34330;52.08032700;5.40923460;2023-07-29T07:38:04;22.80;90.10
6536;DHT22;34330;52.08032700;5.40923460;2023-07-29T07:40:35;22.80;90.10
6536;DHT22;34330;52.08032700;5.40923460;2023-07-29T07:43:03;22.80;90.10
6536;DHT22;34330;52.08032700;5.40923460;2023-07-29T07:45:32;22.80;90.00
6536;DHT22;34330;52.08032700;5.40923460;2023-07-29T07:48:00;22.70;90.30
6536;DHT22;34330;52.08032700;5.40923460;2023-07-29T07:50:30;22.70;90.50
6536;DHT22;34330;52.08032700;5.40923460;2023-07-29T07:52:59;22.80;90.50
6536;DHT22;34330;52.08032700;5.40923460;2023-07-29T07:55:27;22.90;90.30
6536;DHT22;34330;52.08032700;5.40923460;2023-07-29T07:57:56;23.00;90.20
6536;DHT22;34330;52.08032700;5.40923460;2023-07-29T08:00:24;23.10;90.10
6536;DHT22;34330;52.08032700;5.40923460;2023-07-29T08:02:53;23.10;90.00
6536;DHT22;34330;52.08032700;5.40923460;2023-07-29T08:05:21;23.20;90.10
6536;DHT22;34330;52.08032700;5.40923460;2023-07-29T08:07:49;23.20;89.70
6536;DHT22;34330;52.08032700;5.40923460;2023-07-29T08:10:17;23.20;90.10
6536;DHT22;34330;52.08032700;5.40923460;2023-07-29T08:12:45;23.30;89.80
6536;DHT22;34330;52.08032700;5.40923460;2023-07-29T08:15:14;23.30;90.10
6536;DHT22;34330;52.08032700;5.40923460;2023-07-29T08:17:42;23.30;90.10
6536;DHT22;34330;52.08032700;5.40923460;2023-07-29T08:20:10;23.60;90.30
6536;DHT22;34330;52.08032700;5.40923460;2023-07-29T08:22:39;23.50;89.80
6536;DHT22;34330;52.08032700;5.40923460;2023-07-29T08:25:07;23.80;90.00
6536;DHT22;34330;52.08032700;5.40923460;2023-07-29T08:27:35;23.60;90.50
6536;DHT22;34330;52.08032700;5.40923460;2023-07-29T08:30:04;23.70;89.60
6536;DHT22;34330;52.08032700;5.40923460;2023-07-29T08:32:36;23.80;89.50
6536;DHT22;34330;52.08032700;5.40923460;2023-07-29T08:35:04;23.90;88.90
6536;DHT22;34330;52.08032700;5.40923460;2023-07-29T08:37:35;24.00;88.20
6536;DHT22;34330;52.08032700;5.40923460;2023-07-29T08:40:04;24.00;87.90
6536;DHT22;34330;52.08032700;5.40923460;2023-07-29T08:42:32;24.00;87.20
6536;DHT22;34330;52.08032700;5.40923460;2023-07-29T08:45:06;24.00;87.00
6536;DHT22;34330;52.08032700;5.40923460;2023-07-29T08:47:37;24.00;86.50
6536;DHT22;34330;52.08032700;5.40923460;2023-07-29T08:50:06;24.00;86.40
6536;DHT22;34330;52.08032700;5.40923460;2023-07-29T08:52:34;24.00;86.40
6536;DHT22;34330;52.08032700;5.40923460;2023-07-29T08:55:03;23.90;86.30
6536;DHT22;34330;52.08032700;5.40923460;2023-07-29T08:57:32;23.90;86.30
6536;DHT22;34330;52.08032700;5.40923460;2023-07-29T09:00:01;23.90;86.20
6536;DHT22;34330;52.08032700;5.40923460;2023-07-29T09:02:29;23.90;86.30
6536;DHT22;34330;52.08032700;5.40923460;2023-07-29T09:04:59;23.90;86.20
6536;DHT22;34330;52.08032700;5.40923460;2023-07-29T09:07:28;23.90;86.00
6536;DHT22;34330;52.08032700;5.40923460;2023-07-29T09:09:56;23.90;86.20
6536;DHT22;34330;52.08032700;5.40923460;2023-07-29T09:12:24;23.90;86.70
6536;DHT22;34330;52.08032700;5.40923460;2023-07-29T09:14:53;23.90;86.60
6536;DHT22;34330;52.08032700;5.40923460;2023-07-29T09:17:21;24.00;87.30
6536;DHT22;34330;52.08032700;5.40923460;2023-07-29T09:19:50;24.00;86.30
6536;DHT22;34330;52.08032700;5.40923460;2023-07-29T09:22:20;24.10;86.00
6536;DHT22;34330;52.08032700;5.40923460;2023-07-29T09:24:48;24.10;85.40
6536;DHT22;34330;52.08032700;5.40923460;2023-07-29T09:27:24;24.10;85.40
6536;DHT22;34330;52.08032700;5.40923460;2023-07-29T09:29:52;24.10;85.20
6536;DHT22;34330;52.08032700;5.40923460;2023-07-29T09:32:21;24.20;85.30
6536;DHT22;34330;52.08032700;5.40923460;2023-07-29T09:34:49;24.20;85.20
6536;DHT22;34330;52.08032700;5.40923460;2023-07-29T09:37:19;24.30;85.30
6536;DHT22;34330;52.08032700;5.40923460;2023-07-29T09:39:50;24.30;85.90
6536;DHT22;34330;52.08032700;5.40923460;2023-07-29T09:42:18;24.40;84.80
6536;DHT22;34330;52.08032700;5.40923460;2023-07-29T09:44:48;24.40;84.80
6536;DHT22;34330;52.08032700;5.40923460;2023-07-29T09:47:20;24.10;84.10
6536;DHT22;34330;52.08032700;5.40923460;2023-07-29T09:49:49;24.40;83.90
6536;DHT22;34330;52.08032700;5.40923460;2023-07-29T09:52:18;24.40;83.60
6536;DHT22;34330;52.08032700;5.40923460;2023-07-29T09:54:48;24.40;83.50
6536;DHT22;34330;52.08032700;5.40923460;2023-07-29T09:57:18;24.40;83.30
6536;DHT22;34330;52.08032700;5.40923460;2023-07-29T09:59:54;24.40;83.30
6536;DHT22;34330;52.08032700;5.40923460;2023-07-29T10:02:22;24.40;83.00
6536;DHT22;34330;52.08032700;5.40923460;2023-07-29T10:04:52;24.40;83.10
6536;DHT22;34330;52.08032700;5.40923460;2023-07-29T10:07:21;24.40;83.60
6536;DHT22;34330;52.08032700;5.40923460;2023-07-29T10:09:52;24.40;83.50
6536;DHT22;34330;52.08032700;5.40923460;2023-07-29T10:12:20;24.50;83.50
6536;DHT22;34330;52.08032700;5.40923460;2023-07-29T10:14:49;24.50;83.80
6536;DHT22;34330;52.08032700;5.40923460;2023-07-29T10:17:19;24.50;83.20
6536;DHT22;34330;52.08032700;5.40923460;2023-07-29T10:19:48;24.60;83.10
6536;DHT22;34330;52.08032700;5.40923460;2023-07-29T10:22:18;24.60;83.20
6536;DHT22;34330;52.08032700;5.40923460;2023-07-29T10:24:48;24.70;82.60
6536;DHT22;34330;52.08032700;5.40923460;2023-07-29T10:27:19;24.70;82.30
6536;DHT22;34330;52.08032700;5.40923460;2023-07-29T10:29:49;24.80;82.20
6536;DHT22;34330;52.08032700;5.40923460;2023-07-29T10:32:19;24.80;82.10
6536;DHT22;34330;52.08032700;5.40923460;2023-07-29T10:34:50;24.80;82.10
6536;DHT22;34330;52.08032700;5.40923460;2023-07-29T10:37:18;24.80;82.40
6536;DHT22;34330;52.08032700;5.40923460;2023-07-29T10:39:53;24.90;82.60
6536;DHT22;34330;52.08032700;5.40923460;2023-07-29T10:42:22;24.90;82.10
6536;DHT22;34330;52.08032700;5.40923460;2023-07-29T10:44:51;24.90;82.20
6536;DHT22;34330;52.08032700;5.40923460;2023-07-29T10:47:22;24.90;81.90
6536;DHT22;34330;52.08032700;5.40923460;2023-07-29T10:49:52;24.90;81.70
6536;DHT22;34330;52.08032700;5.40923460;2023-07-29T10:52:37;24.90;82.30
6536;DHT22;34330;52.08032700;5.40923460;2023-07-29T10:55:25;24.90;81.90
6536;DHT22;34330;52.08032700;5.40923460;2023-07-29T10:58:11;25.10;83.60
6536;DHT22;34330;52.08032700;5.40923460;2023-07-29T11:00:41;24.80;84.20
6536;DHT22;34330;52.08032700;5.40923460;2023-07-29T11:03:11;24.80;85.00
6536;DHT22;34330;52.08032700;5.40923460;2023-07-29T11:05:43;24.70;85.50
6536;DHT22;34330;52.08032700;5.40923460;2023-07-29T11:08:22;24.70;85.80
6536;DHT22;34330;52.08032700;5.40923460;2023-07-29T11:11:04;24.60;86.30
6536;DHT22;34330;52.08032700;5.40923460;2023-07-29T11:13:37;24.50;86.00
6536;DHT22;34330;52.08032700;5.40923460;2023-07-29T11:16:06;24.50;86.30
6536;DHT22;34330;52.08032700;5.40923460;2023-07-29T11:18:36;24.50;86.60
6536;DHT22;34330;52.08032700;5.40923460;2023-07-29T11:21:04;24.40;87.10
6536;DHT22;34330;52.08032700;5.40923460;2023-07-29T11:23:34;24.40;86.80
6536;DHT22;34330;52.08032700;5.40923460;2023-07-29T11:26:03;24.40;87.20
6536;DHT22;34330;52.08032700;5.40923460;2023-07-29T11:28:39;24.30;87.50
6536;DHT22;34330;52.08032700;5.40923460;2023-07-29T11:31:07;24.20;87.80
6536;DHT22;34330;52.08032700;5.40923460;2023-07-29T11:33:39;24.20;87.80
6536;DHT22;34330;52.08032700;5.40923460;2023-07-29T11:36:17;24.20;88.80
6536;DHT22;34330;52.08032700;5.40923460;2023-07-29T11:38:46;24.10;88.90
6536;DHT22;34330;52.08032700;5.40923460;2023-07-29T11:41:19;24.00;88.90
6536;DHT22;34330;52.08032700;5.40923460;2023-07-29T11:43:50;24.00;89.10
6536;DHT22;34330;52.08032700;5.40923460;2023-07-29T11:46:21;24.00;89.40
6536;DHT22;34330;52.08032700;5.40923460;2023-07-29T11:48:50;23.90;89.80
6536;DHT22;34330;52.08032700;5.40923460;2023-07-29T11:51:18;25.50;90.30
6536;DHT22;34330;52.08032700;5.40923460;2023-07-29T11:53:47;23.90;89.80
6536;DHT22;34330;52.08032700;5.40923460;2023-07-29T11:56:15;23.90;89.60
6536;DHT22;34330;52.08032700;5.40923460;2023-07-29T11:58:44;23.80;90.00
6536;DHT22;34330;52.08032700;5.40923460;2023-07-29T12:01:14;23.90;90.00
6536;DHT22;34330;52.08032700;5.40923460;2023-07-29T12:03:43;23.80;90.30
6536;DHT22;34330;52.08032700;5.40923460;2023-07-29T12:06:11;23.80;90.50
6536;DHT22;34330;52.08032700;5.40923460;2023-07-29T12:08:39;23.80;90.50
6536;DHT22;34330;52.08032700;5.40923460;2023-07-29T12:11:10;23.80;90.50
6536;DHT22;34330;52.08032700;5.40923460;2023-07-29T12:13:38;23.80;90.50
6536;DHT22;34330;52.08032700;5.40923460;2023-07-29T12:16:06;23.80;90.70
6536;DHT22;34330;52.08032700;5.40923460;2023-07-29T12:18:36;23.90;91.10
6536;DHT22;34330;52.08032700;5.40923460;2023-07-29T12:21:04;23.90;91.80
6536;DHT22;34330;52.08032700;5.40923460;2023-07-29T12:23:32;24.00;91.40
6536;DHT22;34330;52.08032700;5.40923460;2023-07-29T12:26:00;24.10;91.90
6536;DHT22;34330;52.08032700;5.40923460;2023-07-29T12:28:30;24.10;91.80
6536;DHT22;34330;52.08032700;5.40923460;2023-07-29T12:30:58;24.30;92.10
6536;DHT22;34330;52.08032700;5.40923460;2023-07-29T12:33:30;24.40;91.60
6536;DHT22;34330;52.08032700;5.40923460;2023-07-29T12:35:59;24.60;91.40
6536;DHT22;34330;52.08032700;5.40923460;2023-07-29T12:38:28;24.70;91.00
6536;DHT22;34330;52.08032700;5.40923460;2023-07-29T12:40:56;24.90;90.80
6536;DHT22;34330;52.08032700;5.40923460;2023-07-29T12:43:25;25.00;90.80
6536;DHT22;34330;52.08032700;5.40923460;2023-07-29T12:45:57;25.10;90.60
6536;DHT22;34330;52.08032700;5.40923460;2023-07-29T12:48:25;25.10;90.20
6536;DHT22;34330;52.08032700;5.40923460;2023-07-29T12:50:53;25.20;90.00
6536;DHT22;34330;52.08032700;5.40923460;2023-07-29T12:53:22;25.30;89.70
6536;DHT22;34330;52.08032700;5.40923460;2023-07-29T12:55:50;25.30;89.60
6536;DHT22;34330;52.08032700;5.40923460;2023-07-29T12:58:18;25.50;89.40
6536;DHT22;34330;52.08032700;5.40923460;2023-07-29T13:00:46;25.60;89.50
6536;DHT22;34330;52.08032700;5.40923460;2023-07-29T13:03:14;25.70;89.50
6536;DHT22;34330;52.08032700;5.40923460;2023-07-29T13:05:43;25.80;88.70
6536;DHT22;34330;52.08032700;5.40923460;2023-07-29T13:08:11;25.90;88.20
6536;DHT22;34330;52.08032700;5.40923460;2023-07-29T13:10:40;26.00;87.90
6536;DHT22;34330;52.08032700;5.40923460;2023-07-29T13:13:08;26.10;87.20
6536;DHT22;34330;52.08032700;5.40923460;2023-07-29T13:15:36;26.20;86.60
6536;DHT22;34330;52.08032700;5.40923460;2023-07-29T13:18:04;26.30;86.40
6536;DHT22;34330;52.08032700;5.40923460;2023-07-29T13:20:32;26.40;85.80
6536;DHT22;34330;52.08032700;5.40923460;2023-07-29T13:23:01;26.40;86.60
6536;DHT22;34330;52.08032700;5.40923460;2023-07-29T13:25:29;26.50;86.60
6536;DHT22;34330;52.08032700;5.40923460;2023-07-29T13:27:59;26.50;85.10
6536;DHT22;34330;52.08032700;5.40923460;2023-07-29T13:30:27;26.60;84.30
6536;DHT22;34330;52.08032700;5.40923460;2023-07-29T13:32:56;26.60;84.30
6536;DHT22;34330;52.08032700;5.40923460;2023-07-29T13:35:26;26.70;83.00
6536;DHT22;34330;52.08032700;5.40923460;2023-07-29T13:37:54;26.70;83.10
6536;DHT22;34330;52.08032700;5.40923460;2023-07-29T13:40:22;26.80;82.30
6536;DHT22;34330;52.08032700;5.40923460;2023-07-29T13:42:50;26.90;82.20
6536;DHT22;34330;52.08032700;5.40923460;2023-07-29T13:45:20;26.90;82.50